createdAt,value
2022-08-07T00:00:25.778Z,20.47
2022-08-07T00:02:53.929Z,20.19
2022-08-07T00:05:23.758Z,20.07
2022-08-07T00:07:59.778Z,20.48
2022-08-07T00:10:30.580Z,20.51
2022-08-07T00:13:09.872Z,20.63
2022-08-07T00:15:51.268Z,20.59
2022-08-07T00:18:24.549Z,20.48
2022-08-07T00:21:01.926Z,20.56
2022-08-07T00:23:31.777Z,20.39
2022-08-07T00:26:18.886Z,20.56
2022-08-07T00:28:56.428Z,20.80
2022-08-07T00:31:37.397Z,20.83
2022-08-07T00:34:08.801Z,20.94
2022-08-07T00:36:42.705Z,20.88
2022-08-07T00:39:12.863Z,20.66
2022-08-07T00:42:01.728Z,20.99
2022-08-07T00:44:35.070Z,21.24
2022-08-07T00:47:15.627Z,20.88
2022-08-07T00:50:20.271Z,20.64
2022-08-07T00:52:47.288Z,21.02
2022-08-07T00:55:17.242Z,20.37
2022-08-07T00:57:55.776Z,20.44
2022-08-07T01:00:23.745Z,20.43
2022-08-07T01:02:51.759Z,20.50
2022-08-07T01:05:19.984Z,20.53
2022-08-07T01:07:52.304Z,21.02
2022-08-07T01:10:20.804Z,20.22
2022-08-07T01:12:53.553Z,20.38
2022-08-07T01:15:35.996Z,20.98
2022-08-07T01:18:10.946Z,20.61
2022-08-07T01:20:57.342Z,20.44
2022-08-07T01:23:38.006Z,20.49
2022-08-07T01:26:08.319Z,20.63
2022-08-07T01:28:46.071Z,20.91
2022-08-07T01:31:17.943Z,20.55
2022-08-07T01:33:53.544Z,21.29
2022-08-07T01:36:33.587Z,20.93
2022-08-07T01:39:09.441Z,20.96
2022-08-07T01:41:55.066Z,21.19
2022-08-07T01:44:27.458Z,21.15
2022-08-07T01:46:55.481Z,21.26
2022-08-07T01:49:24.232Z,20.66
2022-08-07T01:52:03.652Z,20.58
2022-08-07T01:54:36.783Z,20.75
2022-08-07T01:57:08.457Z,21.04
2022-08-07T01:59:43.821Z,20.45
2022-08-07T02:02:32.976Z,20.92
2022-08-07T02:05:06.621Z,20.97
2022-08-07T02:07:49.967Z,21.09
2022-08-07T02:10:22.196Z,20.64
2022-08-07T02:12:50.473Z,20.58
2022-08-07T02:15:21.300Z,20.65
2022-08-07T02:17:51.988Z,20.54
2022-08-07T02:20:23.815Z,20.26
2022-08-07T02:22:55.330Z,20.26
2022-08-07T02:26:10.110Z,20.50
2022-08-07T02:28:11.668Z,20.26
2022-08-07T02:30:39.779Z,20.49
2022-08-07T02:33:10.447Z,20.29
2022-08-07T02:36:29.408Z,20.51
2022-08-07T02:38:31.784Z,20.73
2022-08-07T02:41:00.942Z,20.83
2022-08-07T02:43:32.159Z,20.71
2022-08-07T02:46:02.116Z,20.70
2022-08-07T02:48:30.939Z,20.16
2022-08-07T02:50:59.925Z,20.76
2022-08-07T02:53:38.337Z,20.62
2022-08-07T02:56:13.063Z,20.61
2022-08-07T02:58:53.953Z,20.56
2022-08-07T03:01:35.510Z,20.81
2022-08-07T03:04:07.625Z,20.71
2022-08-07T03:06:44.830Z,20.33
2022-08-07T03:09:14.059Z,20.16
2022-08-07T03:11:52.662Z,20.30
2022-08-07T03:14:26.392Z,20.64
2022-08-07T03:16:56.559Z,20.63
2022-08-07T03:19:24.408Z,20.42
2022-08-07T03:21:57.318Z,20.81
2022-08-07T03:24:28.066Z,19.93
2022-08-07T03:26:59.724Z,20.04
2022-08-07T03:29:37.388Z,19.97
2022-08-07T03:32:08.311Z,20.52
2022-08-07T03:34:39.123Z,20.45
2022-08-07T03:37:12.441Z,20.14
2022-08-07T03:39:46.393Z,20.20
2022-08-07T03:42:27.631Z,20.00
2022-08-07T03:44:57.942Z,20.17
2022-08-07T03:47:27.938Z,20.58
2022-08-07T03:49:57.748Z,19.95
2022-08-07T03:52:27.453Z,20.22
2022-08-07T03:55:07.360Z,20.48
2022-08-07T03:58:33.366Z,21.09
2022-08-07T04:00:30.403Z,20.63
2022-08-07T04:03:04.439Z,20.71
2022-08-07T04:05:40.163Z,20.54
2022-08-07T04:08:11.386Z,20.29
2022-08-07T04:10:42.590Z,20.32
2022-08-07T04:13:24.337Z,20.28
2022-08-07T04:15:55.708Z,20.58
2022-08-07T04:18:57.519Z,20.56
2022-08-07T04:21:12.903Z,20.98
2022-08-07T04:24:07.378Z,21.12
2022-08-07T04:26:32.013Z,20.37
2022-08-07T04:29:00.374Z,20.35
2022-08-07T04:31:38.851Z,20.14
2022-08-07T04:34:23.907Z,20.23
2022-08-07T04:36:51.788Z,20.45
2022-08-07T04:39:25.870Z,20.14
2022-08-07T04:41:54.159Z,20.36
2022-08-07T04:44:21.901Z,20.82
2022-08-07T04:47:07.811Z,20.55
2022-08-07T04:50:03.721Z,20.30
2022-08-07T04:52:51.201Z,20.32
2022-08-07T04:58:10.234Z,20.81
2022-08-07T05:00:09.419Z,20.29
2022-08-07T05:02:16.914Z,19.84
2022-08-07T05:05:11.506Z,20.59
2022-08-07T05:08:12.492Z,20.52
2022-08-07T05:10:45.732Z,20.29
2022-08-07T05:14:52.166Z,20.66
2022-08-07T05:16:12.450Z,20.25
2022-08-07T05:18:53.717Z,20.75
2022-08-07T05:22:00.106Z,20.62
2022-08-07T05:24:12.312Z,20.45
2022-08-07T05:26:39.980Z,20.72
2022-08-07T05:29:08.153Z,20.70
2022-08-07T05:31:38.630Z,20.32
2022-08-07T05:34:12.234Z,20.78
2022-08-07T05:36:42.053Z,21.14
2022-08-07T05:40:13.629Z,21.52
2022-08-07T05:42:02.762Z,21.45
2022-08-07T05:44:34.472Z,21.89
2022-08-07T05:47:18.395Z,21.86
2022-08-07T05:49:49.934Z,21.27
2022-08-07T05:52:32.187Z,21.75
2022-08-07T05:55:07.238Z,22.51
2022-08-07T05:57:41.949Z,22.12
2022-08-07T06:00:16.628Z,22.66
2022-08-07T06:02:48.265Z,22.55
2022-08-07T06:05:16.101Z,22.87
2022-08-07T06:08:09.183Z,22.74
2022-08-07T06:10:32.053Z,23.24
2022-08-07T06:13:02.282Z,23.17
2022-08-07T06:15:39.068Z,23.66
2022-08-07T06:18:12.356Z,23.76
2022-08-07T06:20:49.604Z,23.53
2022-08-07T06:23:45.812Z,23.10
2022-08-07T06:26:07.668Z,23.43
2022-08-07T06:28:55.483Z,23.02
2022-08-07T06:31:24.310Z,23.56
2022-08-07T06:34:11.098Z,23.44
2022-08-07T06:36:40.977Z,23.72
2022-08-07T06:40:15.952Z,24.45
2022-08-07T06:42:03.475Z,24.21
2022-08-07T06:44:36.627Z,23.83
2022-08-07T06:47:12.552Z,23.80
2022-08-07T06:49:51.721Z,23.02
2022-08-07T06:52:31.325Z,22.18
2022-08-07T06:55:34.101Z,22.36
2022-08-07T06:58:12.620Z,22.00
2022-08-07T07:00:42.389Z,21.87
2022-08-07T07:03:13.746Z,21.62
2022-08-07T07:06:04.187Z,21.93
2022-08-07T07:08:30.211Z,22.29
2022-08-07T07:10:59.111Z,21.99
2022-08-07T07:13:55.638Z,22.44
2022-08-07T07:16:28.959Z,22.61
2022-08-07T07:19:11.401Z,22.67
2022-08-07T07:22:05.454Z,23.03
2022-08-07T07:24:36.211Z,23.16
2022-08-07T07:27:04.786Z,23.43
2022-08-07T07:29:56.258Z,23.68
2022-08-07T07:32:23.780Z,23.76
2022-08-07T07:34:53.643Z,23.76
2022-08-07T07:37:45.337Z,24.11
2022-08-07T07:40:15.311Z,24.44
2022-08-07T07:42:47.127Z,24.42
2022-08-07T07:45:19.547Z,24.97
2022-08-07T07:47:53.262Z,25.45
2022-08-07T07:50:35.718Z,25.63
2022-08-07T07:53:20.483Z,26.04
2022-08-07T07:55:57.729Z,26.31
2022-08-07T07:58:40.316Z,25.99
2022-08-07T08:02:00.961Z,26.48
2022-08-07T08:04:09.572Z,26.67
2022-08-07T08:06:51.973Z,27.18
2022-08-07T08:09:23.288Z,27.51
2022-08-07T08:12:01.604Z,27.37
2022-08-07T08:14:36.437Z,27.80
2022-08-07T08:17:55.361Z,27.25
2022-08-07T08:20:19.385Z,27.80
2022-08-07T08:23:09.409Z,27.22
2022-08-07T08:25:56.762Z,27.80
2022-08-07T08:28:38.172Z,28.39
2022-08-07T08:31:16.423Z,29.40
2022-08-07T08:33:55.720Z,30.06
2022-08-07T08:36:29.551Z,30.88
2022-08-07T08:39:00.014Z,31.47
2022-08-07T08:41:58.750Z,31.48
2022-08-07T08:44:44.268Z,32.83
2022-08-07T08:47:26.505Z,34.27
2022-08-07T08:50:18.977Z,35.45
2022-08-07T08:53:04.933Z,36.34
2022-08-07T08:55:54.649Z,38.65
2022-08-07T08:58:34.765Z,38.58
2022-08-07T09:01:15.023Z,38.48
2022-08-07T09:03:56.682Z,38.51
2022-08-07T09:06:48.017Z,38.07
2022-08-07T09:09:36.586Z,37.98
2022-08-07T09:12:30.681Z,38.53
2022-08-07T09:16:22.880Z,38.05
2022-08-07T09:18:22.446Z,37.60
2022-08-07T09:21:57.749Z,38.74
2022-08-07T09:24:55.017Z,38.72
2022-08-07T09:28:00.483Z,38.23
2022-08-07T09:31:06.537Z,35.87
2022-08-07T09:34:07.812Z,35.46
2022-08-07T09:36:51.378Z,35.91
2022-08-07T09:39:55.594Z,36.35
2022-08-07T09:43:08.648Z,37.20
2022-08-07T09:47:51.123Z,35.48
2022-08-07T09:50:01.948Z,35.23
2022-08-07T09:52:16.092Z,35.61
2022-08-07T09:54:59.365Z,35.51
2022-08-07T09:57:36.684Z,36.20
2022-08-07T10:00:16.557Z,36.46
2022-08-07T10:02:56.302Z,35.82
2022-08-07T10:05:59.418Z,34.78
2022-08-07T10:08:59.543Z,35.11
2022-08-07T10:12:01.259Z,34.96
2022-08-07T10:14:41.983Z,35.14
2022-08-07T10:17:24.281Z,33.97
2022-08-07T10:20:14.649Z,34.19
2022-08-07T10:23:11.827Z,34.91
2022-08-07T10:26:10.712Z,35.13
2022-08-07T10:29:15.819Z,35.56
2022-08-07T10:32:35.729Z,35.30
2022-08-07T10:35:12.414Z,36.58
2022-08-07T10:38:21.478Z,35.10
2022-08-07T10:40:56.554Z,35.37
2022-08-07T10:43:34.111Z,32.32
2022-08-07T10:46:26.744Z,33.78
2022-08-07T10:49:24.722Z,34.45
2022-08-07T10:52:13.302Z,34.36
2022-08-07T10:55:02.065Z,34.25
2022-08-07T10:57:56.391Z,33.37
2022-08-07T11:00:36.823Z,33.76
2022-08-07T11:03:52.829Z,34.05
2022-08-07T11:06:42.074Z,33.44
2022-08-07T11:10:08.919Z,33.73
2022-08-07T11:12:14.581Z,33.89
2022-08-07T11:15:14.599Z,34.49
2022-08-07T11:17:56.953Z,34.35
2022-08-07T11:20:37.803Z,34.35
2022-08-07T11:23:38.425Z,34.38
2022-08-07T11:26:48.114Z,34.26
2022-08-07T11:30:18.471Z,33.86
2022-08-07T11:32:55.657Z,33.37
2022-08-07T11:35:28.137Z,32.55
2022-08-07T11:37:57.847Z,30.93
2022-08-07T11:40:57.924Z,30.88
2022-08-07T11:43:54.398Z,30.78
2022-08-07T11:46:28.595Z,30.84
2022-08-07T11:49:51.155Z,31.98
2022-08-07T11:53:05.176Z,31.70
2022-08-07T11:56:20.453Z,31.98
2022-08-07T11:58:59.892Z,31.72
2022-08-07T12:01:59.660Z,30.65
2022-08-07T12:04:34.142Z,31.66
2022-08-07T12:07:27.527Z,30.35
2022-08-07T12:10:09.412Z,31.36
2022-08-07T12:12:42.856Z,30.80
2022-08-07T12:15:17.260Z,30.35
2022-08-07T12:18:11.441Z,30.95
2022-08-07T12:20:46.352Z,31.50
2022-08-07T12:24:06.329Z,30.32
2022-08-07T12:26:29.896Z,31.06
2022-08-07T12:29:16.132Z,31.28
2022-08-07T12:32:23.952Z,31.50
2022-08-07T12:34:55.704Z,31.97
2022-08-07T12:37:28.249Z,31.71
2022-08-07T12:40:44.908Z,31.68
2022-08-07T12:43:01.796Z,31.76
2022-08-07T12:45:35.634Z,32.16
2022-08-07T12:48:53.038Z,31.75
2022-08-07T12:51:46.397Z,31.94
2022-08-07T12:54:54.731Z,31.93
2022-08-07T12:57:27.266Z,32.12
2022-08-07T13:00:20.969Z,31.94
2022-08-07T13:03:26.857Z,32.16
2022-08-07T13:06:21.588Z,32.37
2022-08-07T13:10:21.437Z,31.98
2022-08-07T13:12:43.276Z,32.45
2022-08-07T13:15:38.530Z,32.52
2022-08-07T13:18:09.008Z,32.38
2022-08-07T13:20:44.625Z,31.50
2022-08-07T13:24:01.751Z,31.94
2022-08-07T13:26:46.253Z,32.36
2022-08-07T13:29:23.920Z,31.51
2022-08-07T13:32:31.333Z,30.81
2022-08-07T13:34:58.461Z,30.94
2022-08-07T13:37:29.581Z,31.28
2022-08-07T13:40:35.354Z,31.64
2022-08-07T13:43:12.026Z,32.08
2022-08-07T13:46:11.577Z,32.28
2022-08-07T13:48:35.087Z,32.81
2022-08-07T13:51:27.397Z,32.48
2022-08-07T13:54:01.975Z,32.46
2022-08-07T13:56:40.701Z,30.75
2022-08-07T13:59:24.467Z,31.76
2022-08-07T14:02:03.513Z,31.33
2022-08-07T14:04:35.631Z,30.82
2022-08-07T14:07:09.505Z,31.60
2022-08-07T14:10:01.297Z,31.96
2022-08-07T14:12:55.698Z,32.24
2022-08-07T14:15:40.555Z,32.65
2022-08-07T14:18:29.008Z,32.63
2022-08-07T14:22:00.582Z,32.49
2022-08-07T14:24:03.777Z,32.57
2022-08-07T14:26:50.380Z,32.43
2022-08-07T14:30:05.561Z,32.38
2022-08-07T14:32:13.234Z,31.98
2022-08-07T14:34:45.482Z,32.12
2022-08-07T14:37:16.987Z,31.98
2022-08-07T14:40:17.846Z,32.18
2022-08-07T14:42:35.562Z,31.82
2022-08-07T14:45:47.111Z,31.64
2022-08-07T14:48:20.395Z,31.89
2022-08-07T14:50:58.597Z,30.88
2022-08-07T14:56:29.526Z,31.05
2022-08-07T14:59:01.246Z,30.88
2022-08-07T15:01:42.864Z,31.46
2022-08-07T15:04:19.070Z,30.66
2022-08-07T15:06:47.581Z,30.68
2022-08-07T15:09:59.647Z,30.97
2022-08-07T15:13:05.887Z,31.58
2022-08-07T15:15:09.276Z,31.59
2022-08-07T15:20:55.172Z,31.76
2022-08-07T15:25:16.168Z,31.50
2022-08-07T15:26:22.616Z,31.66
2022-08-07T15:28:59.456Z,31.65
2022-08-07T15:31:57.765Z,31.15
2022-08-07T15:34:26.254Z,30.72
2022-08-07T15:39:57.740Z,31.51
2022-08-07T15:42:48.263Z,31.59
2022-08-07T15:45:22.628Z,30.69
2022-08-07T15:48:01.297Z,30.44
2022-08-07T15:51:01.425Z,30.88
2022-08-07T15:53:51.730Z,30.88
2022-08-07T15:56:15.674Z,30.45
2022-08-07T15:58:52.180Z,31.32
2022-08-07T16:01:43.751Z,31.38
2022-08-07T16:04:31.343Z,31.40
2022-08-07T16:07:00.412Z,30.18
2022-08-07T16:09:42.241Z,30.68
2022-08-07T16:13:01.115Z,30.42
2022-08-07T16:15:57.285Z,30.63
2022-08-07T16:18:50.109Z,30.93
2022-08-07T16:21:44.113Z,30.61
2022-08-07T16:24:33.682Z,31.12
2022-08-07T16:27:17.826Z,31.17
2022-08-07T16:30:31.509Z,30.46
2022-08-07T16:34:02.722Z,30.65
2022-08-07T16:36:31.504Z,29.82
2022-08-07T16:39:04.988Z,30.64
2022-08-07T16:41:41.485Z,30.09
2022-08-07T16:45:04.117Z,29.85
2022-08-07T16:47:56.635Z,29.55
2022-08-07T16:51:13.383Z,29.79
2022-08-07T16:54:09.708Z,29.71
2022-08-07T16:57:01.667Z,29.98
2022-08-07T16:59:46.356Z,29.68
2022-08-07T17:02:51.588Z,29.75
2022-08-07T17:06:01.526Z,30.03
2022-08-07T17:09:04.276Z,29.76
2022-08-07T17:12:03.934Z,29.68
2022-08-07T17:14:36.223Z,29.59
2022-08-07T17:17:06.830Z,29.32
2022-08-07T17:20:00.738Z,28.83
2022-08-07T17:22:48.630Z,29.27
2022-08-07T17:25:20.162Z,29.25
2022-08-07T17:28:14.021Z,29.77
2022-08-07T17:30:57.981Z,29.57
2022-08-07T17:34:10.194Z,30.18
2022-08-07T17:36:26.017Z,29.88
2022-08-07T17:39:10.069Z,29.86
2022-08-07T17:42:02.187Z,30.03
2022-08-07T17:44:45.646Z,30.26
2022-08-07T17:47:38.046Z,30.09
2022-08-07T17:50:30.498Z,30.33
2022-08-07T17:54:01.474Z,30.18
2022-08-07T17:56:28.651Z,30.24
2022-08-07T17:58:57.315Z,30.30
2022-08-07T18:01:36.260Z,30.25
2022-08-07T18:04:30.830Z,30.23
2022-08-07T18:07:20.881Z,30.25
2022-08-07T18:10:09.921Z,30.31
2022-08-07T18:12:51.282Z,30.17
2022-08-07T18:15:32.737Z,30.21
2022-08-07T18:18:45.569Z,30.20
2022-08-07T18:21:42.212Z,30.24
2022-08-07T18:24:34.479Z,30.13
2022-08-07T18:27:17.374Z,30.32
2022-08-07T18:30:07.818Z,30.08
2022-08-07T18:32:54.742Z,30.11
2022-08-07T18:35:52.027Z,29.63
2022-08-07T18:38:56.754Z,29.16
2022-08-07T18:42:13.065Z,28.80
2022-08-07T18:45:44.467Z,27.90
2022-08-07T18:48:00.759Z,27.67
2022-08-07T18:50:47.115Z,27.50
2022-08-07T18:53:39.231Z,27.58
2022-08-07T18:56:14.068Z,27.49
2022-08-07T18:58:56.769Z,26.70
2022-08-07T19:02:18.384Z,26.85
2022-08-07T19:04:57.712Z,26.99
2022-08-07T19:07:56.865Z,27.09
2022-08-07T19:10:49.657Z,27.36
2022-08-07T19:13:27.475Z,27.25
2022-08-07T19:16:43.537Z,27.37
2022-08-07T19:19:38.907Z,27.92
2022-08-07T19:22:36.123Z,28.35
2022-08-07T19:25:05.475Z,28.31
2022-08-07T19:28:58.224Z,28.11
2022-08-07T19:31:00.840Z,28.23
2022-08-07T19:33:15.635Z,27.83
2022-08-07T19:35:47.109Z,28.15
2022-08-07T19:38:16.659Z,28.10
2022-08-07T19:40:49.891Z,28.29
2022-08-07T19:43:43.990Z,28.23
2022-08-07T19:46:10.033Z,28.21
2022-08-07T19:48:42.265Z,28.20
2022-08-07T19:51:20.446Z,28.05
2022-08-07T19:54:32.104Z,28.04
2022-08-07T19:57:52.182Z,28.27
2022-08-07T19:59:39.949Z,28.06
2022-08-07T20:02:19.835Z,28.04
2022-08-07T20:04:50.087Z,27.58
2022-08-07T20:07:23.412Z,27.88
2022-08-07T20:10:36.538Z,27.70
2022-08-07T20:12:42.157Z,27.47
2022-08-07T20:15:15.843Z,27.83
2022-08-07T20:18:01.557Z,27.83
2022-08-07T20:20:32.894Z,27.19
2022-08-07T20:23:11.060Z,27.31
2022-08-07T20:25:54.474Z,27.37
2022-08-07T20:28:29.664Z,27.64
2022-08-07T20:30:58.250Z,27.47
2022-08-07T20:33:36.701Z,27.38
2022-08-07T20:36:09.796Z,27.34
2022-08-07T20:39:00.124Z,27.54
2022-08-07T20:41:27.709Z,27.03
2022-08-07T20:44:01.235Z,27.08
2022-08-07T20:46:33.480Z,27.24
2022-08-07T20:49:59.540Z,27.12
2022-08-07T20:51:51.185Z,26.93
2022-08-07T20:54:30.174Z,27.03
2022-08-07T20:57:01.861Z,27.22
2022-08-07T21:00:04.458Z,27.17
2022-08-07T21:02:40.127Z,27.28
2022-08-07T21:05:16.368Z,27.27
2022-08-07T21:07:48.982Z,27.28
2022-08-07T21:10:29.617Z,27.04
2022-08-07T21:13:00.790Z,27.26
2022-08-07T21:15:48.044Z,27.19
2022-08-07T21:18:33.306Z,27.15
2022-08-07T21:21:01.102Z,26.93
2022-08-07T21:23:52.286Z,26.71
2022-08-07T21:26:55.986Z,26.85
2022-08-07T21:29:33.713Z,26.59
2022-08-07T21:32:48.103Z,26.38
2022-08-07T21:35:07.995Z,26.34
2022-08-07T21:38:00.293Z,26.82
2022-08-07T21:40:36.050Z,26.09
2022-08-07T21:43:11.052Z,26.30
2022-08-07T21:46:10.554Z,26.10
2022-08-07T21:48:42.639Z,25.61
2022-08-07T21:51:27.471Z,26.03
2022-08-07T21:54:12.306Z,26.21
2022-08-07T21:57:30.793Z,26.04
2022-08-07T22:00:22.780Z,26.16
2022-08-07T22:03:16.837Z,26.02
2022-08-07T22:06:01.091Z,25.64
2022-08-07T22:08:39.316Z,26.04
2022-08-07T22:11:06.758Z,26.21
2022-08-07T22:13:52.275Z,25.81
2022-08-07T22:16:39.162Z,26.08
2022-08-07T22:19:31.056Z,25.93
2022-08-07T22:22:20.775Z,25.55
2022-08-07T22:24:56.964Z,25.65
2022-08-07T22:28:01.256Z,25.65
2022-08-07T22:30:16.156Z,25.52
2022-08-07T22:32:52.828Z,25.66
2022-08-07T22:35:23.350Z,25.71
2022-08-07T22:38:24.344Z,25.64
2022-08-07T22:41:00.027Z,25.44
2022-08-07T22:43:36.752Z,25.70
2022-08-07T22:46:46.915Z,25.42
2022-08-07T22:49:37.698Z,25.62
2022-08-07T22:52:19.533Z,25.41
2022-08-07T22:55:34.657Z,25.61
2022-08-07T22:58:28.014Z,25.48
2022-08-07T23:01:06.187Z,25.13
2022-08-07T23:03:58.530Z,25.29
2022-08-07T23:06:55.030Z,25.14
2022-08-07T23:10:05.321Z,24.98
2022-08-07T23:12:41.674Z,24.79
2022-08-07T23:16:06.591Z,25.13
2022-08-07T23:19:17.579Z,25.37
2022-08-07T23:22:26.806Z,25.47
2022-08-07T23:25:19.114Z,25.10
2022-08-07T23:28:22.647Z,25.12
2022-08-07T23:31:43.000Z,25.27
2022-08-07T23:34:47.220Z,25.20
2022-08-07T23:37:22.461Z,25.08
2022-08-07T23:39:56.258Z,24.32
2022-08-07T23:43:07.632Z,24.28
2022-08-07T23:46:03.772Z,24.31
2022-08-07T23:49:13.688Z,23.98
2022-08-07T23:53:05.382Z,23.96
2022-08-07T23:54:46.855Z,24.13
2022-08-07T23:57:41.209Z,24.43
